Time;durP1;ratioP1;P1;durP2;ratioP2;P2;SDS_P1;SDS_P2;PMS_P1;PMS_P2;Temp;Humidity;BMP_temperature;BMP_pressure;BME280_temperature;BME280_humidity;BME280_pressure;Samples;Min_cycle;Max_cycle;Signal;HPM_P1;HPM_P2
2022/04/13 00:00:58;;;;;;;6.53;5.72;;;;;;;11.56;100.00;101127.69;5206052;28;20033;-80
2022/04/13 00:03:29;;;;;;;5.32;4.50;;;;;;;11.50;100.00;101130.34;5206602;28;20111;-80
2022/04/13 00:05:59;;;;;;;16.30;7.13;;;;;;;11.18;100.00;101088.09;5208518;28;20029;-80
2022/04/13 00:08:31;;;;;;;6.20;5.68;;;;;;;11.51;100.00;101139.28;5209499;28;20504;-81
2022/04/13 00:11:01;;;;;;;8.82;6.43;;;;;;;11.38;100.00;101126.16;5210020;28;20071;-81
2022/04/13 00:13:31;;;;;;;5.85;5.45;;;;;;;11.53;100.00;101136.34;5207778;28;20509;-80
2022/04/13 00:16:02;;;;;;;5.82;4.88;;;;;;;11.56;100.00;101139.31;5212019;28;20507;-81
2022/04/13 00:18:32;;;;;;;7.88;6.28;;;;;;;11.64;100.00;101148.88;5213124;28;20036;-81
2022/04/13 00:21:03;;;;;;;10.30;6.93;;;;;;;11.71;100.00;101144.06;5218053;28;20025;-80
2022/04/13 00:23:33;;;;;;;8.18;5.70;;;;;;;11.74;100.00;101162.50;5218117;28;20105;-81
2022/04/13 00:26:03;;;;;;;9.48;6.32;;;;;;;11.59;100.00;101144.22;5218403;28;20026;-83
2022/04/13 00:28:34;;;;;;;8.85;6.25;;;;;;;11.85;100.00;101164.25;5218594;28;20493;-81
2022/04/13 00:31:04;;;;;;;6.95;6.05;;;;;;;11.95;100.00;101166.22;5214487;28;20025;-81
2022/04/13 00:33:35;;;;;;;6.72;5.95;;;;;;;12.09;100.00;101173.69;5215949;28;20017;-79
2022/04/13 00:39:04;;;;;;;6.68;6.18;;;;;;;12.17;100.00;101170.47;4529129;26;20056;-54
2022/04/13 00:41:34;;;;;;;11.57;6.80;;;;;;;12.10;100.00;101172.59;5168042;28;20030;-55
2022/04/13 00:44:07;;;;;;;7.25;6.53;;;;;;;12.04;100.00;101179.03;5195697;28;20028;-54
2022/04/13 00:46:37;;;;;;;6.85;6.20;;;;;;;11.96;100.00;101171.38;5204821;28;20037;-56
2022/04/13 00:49:08;;;;;;;11.80;7.25;;;;;;;11.90;100.00;101175.09;5188264;28;20040;-57
2022/04/13 00:51:38;;;;;;;7.80;7.10;;;;;;;11.87;100.00;101172.91;5188120;28;20399;-55
2022/04/13 00:54:11;;;;;;;7.03;6.40;;;;;;;11.84;100.00;101174.25;5187373;28;20071;-55
2022/04/13 00:56:43;;;;;;;6.85;5.80;;;;;;;11.82;100.00;101172.91;5204365;28;20040;-55
2022/04/13 00:59:14;;;;;;;7.25;6.63;;;;;;;11.79;100.00;101173.41;5187925;28;20029;-53
2022/04/13 01:01:47;;;;;;;7.22;5.85;;;;;;;11.73;100.00;101168.97;5204256;28;20432;-53
2022/04/13 01:04:19;;;;;;;10.57;6.63;;;;;;;11.64;100.00;101178.63;5187558;28;20116;-54
2022/04/13 01:06:51;;;;;;;7.60;7.10;;;;;;;11.55;100.00;101172.06;5187639;28;20032;-56
2022/04/13 01:09:23;;;;;;;11.68;7.47;;;;;;;11.42;100.00;101176.78;5187810;28;20115;-54
2022/04/13 01:11:53;;;;;;;6.72;6.13;;;;;;;11.41;100.00;101180.56;5204159;28;20060;-57
2022/04/13 01:14:24;;;;;;;8.93;7.20;;;;;;;11.36;100.00;101187.78;5187521;28;20053;-56
2022/04/13 01:16:54;;;;;;;6.85;6.22;;;;;;;11.30;100.00;101184.19;5187897;28;20091;-56
2022/04/13 01:19:25;;;;;;;8.40;7.30;;;;;;;11.20;100.00;101194.91;5187861;28;20115;-56
2022/04/13 01:21:59;;;;;;;6.95;6.65;;;;;;;11.15;100.00;101198.38;5187940;28;20408;-58
2022/04/13 01:24:29;;;;;;;11.82;6.05;;;;;;;11.06;100.00;101193.63;5204322;28;20384;-56
2022/04/13 01:27:00;;;;;;;7.75;6.85;;;;;;;10.98;100.00;101203.00;5188025;28;20028;-57
2022/04/13 01:29:30;;;;;;;7.95;7.43;;;;;;;10.93;100.00;101199.44;5188141;28;20035;-55
2022/04/13 01:32:01;;;;;;;7.55;7.00;;;;;;;10.79;100.00;101188.97;5188126;28;20021;-54
2022/04/13 01:34:32;;;;;;;6.43;6.13;;;;;;;10.75;100.00;101204.03;5187608;28;20395;-56
2022/04/13 01:37:03;;;;;;;6.22;5.78;;;;;;;10.66;100.00;101210.94;5187854;28;20116;-56
2022/04/13 01:39:34;;;;;;;7.68;6.85;;;;;;;10.57;100.00;101214.31;5204092;28;20080;-55
2022/04/13 01:42:04;;;;;;;8.48;7.65;;;;;;;10.41;100.00;101202.44;5187571;28;20037;-57
2022/04/13 01:44:35;;;;;;;11.23;7.90;;;;;;;10.45;100.00;101219.78;5204025;28;20025;-54
2022/04/13 01:53:59;;;;;;;17.92;8.88;;;;;;;10.29;100.00;101236.81;5204379;28;20072;-58
2022/04/13 01:56:29;;;;;;;10.38;8.07;;;;;;;10.24;100.00;101242.94;5186892;28;20026;-55
2022/04/13 01:59:00;;;;;;;7.68;7.07;;;;;;;10.21;100.00;101245.31;5187540;28;20032;-56
2022/04/13 02:01:31;;;;;;;8.90;8.10;;;;;;;10.19;100.00;101240.16;5187331;28;20029;-55
2022/04/13 02:04:02;;;;;;;9.52;7.32;;;;;;;10.20;100.00;101240.97;5203655;28;20029;-56
2022/04/13 02:06:32;;;;;;;11.40;7.30;;;;;;;10.28;100.00;101243.28;5206345;28;20056;-55
2022/04/13 02:09:03;;;;;;;8.75;7.97;;;;;;;10.30;100.00;101238.44;5208236;28;20084;-54
2022/04/13 02:11:34;;;;;;;9.65;8.85;;;;;;;10.07;100.00;101209.69;5191550;28;20033;-56
2022/04/13 02:14:05;;;;;;;9.55;8.57;;;;;;;10.21;100.00;101234.50;5191218;28;20017;-56
2022/04/13 02:16:36;;;;;;;8.05;7.35;;;;;;;10.24;100.00;101242.13;5191555;28;20120;-54
2022/04/13 02:19:12;;;;;;;7.90;7.30;;;;;;;10.16;100.00;101236.03;5207851;28;20032;-56
2022/04/13 02:21:42;;;;;;;9.15;8.27;;;;;;;10.18;100.00;101235.78;5191446;28;20498;-54
2022/04/13 02:24:14;;;;;;;12.93;9.45;;;;;;;10.25;100.00;101251.84;5191028;28;20041;-54
2022/04/13 02:26:44;;;;;;;9.60;8.88;;;;;;;10.24;100.00;101247.50;5191373;28;20026;-55
2022/04/13 02:29:15;;;;;;;15.77;9.52;;;;;;;10.20;100.00;101251.75;5221730;23;20040;-83
2022/04/13 02:31:45;;;;;;;9.75;8.75;;;;;;;10.14;100.00;101251.63;5233481;28;20024;-81
2022/04/13 02:34:17;;;;;;;11.35;8.95;;;;;;;10.09;100.00;101259.66;5238342;28;20096;-82
2022/04/13 02:36:48;;;;;;;15.27;9.18;;;;;;;10.07;100.00;101248.31;5223722;28;20040;-81
2022/04/13 02:39:18;;;;;;;15.73;9.50;;;;;;;9.94;100.00;101237.78;5223200;28;20022;-82
2022/04/13 02:41:49;;;;;;;14.15;9.32;;;;;;;9.84;100.00;101232.22;5224217;28;20398;-82
2022/04/13 02:44:19;;;;;;;9.63;8.75;;;;;;;9.96;100.00;101259.13;5269663;23;20039;-56
2022/04/13 02:46:50;;;;;;;9.68;8.68;;;;;;;9.79;100.00;101248.31;5269879;28;20512;-58
2022/04/13 02:49:20;;;;;;;12.60;10.20;;;;;;;9.76;100.00;101259.59;5268591;28;20481;-58
2022/04/13 02:51:50;;;;;;;9.95;9.13;;;;;;;9.68;100.00;101258.09;5268404;28;20044;-58
2022/04/13 02:54:21;;;;;;;13.63;10.13;;;;;;;9.59;100.00;101264.09;5237162;28;20024;-58
2022/04/13 02:56:51;;;;;;;11.40;9.25;;;;;;;9.38;100.00;101239.44;5230819;28;20021;-56
2022/04/13 02:59:22;;;;;;;12.68;9.43;;;;;;;9.50;100.00;101258.28;5230803;28;20361;-55
2022/04/13 03:01:53;;;;;;;12.75;9.13;;;;;;;9.50;100.00;101260.16;5230698;28;20020;-56
2022/04/13 03:04:23;;;;;;;16.00;10.02;;;;;;;9.48;100.00;101258.50;5230173;28;20047;-58
2022/04/13 03:06:54;;;;;;;8.30;7.75;;;;;;;9.46;100.00;101254.41;5230553;28;20032;-56
2022/04/13 03:09:24;;;;;;;10.95;10.20;;;;;;;9.36;100.00;101228.06;5247058;28;20486;-54
2022/04/13 03:11:55;;;;;;;10.18;9.27;;;;;;;9.51;100.00;101245.63;5230569;28;20330;-55
2022/04/13 03:14:26;;;;;;;10.73;9.68;;;;;;;9.61;100.00;101252.00;5230086;28;20036;-55
2022/04/13 03:16:56;;;;;;;9.52;8.68;;;;;;;9.61;100.00;101254.69;5230117;28;20025;-56
2022/04/13 03:20:20;;;;;;;15.77;8.85;;;;;;;9.61;100.00;101256.56;5247532;28;20027;-55
2022/04/13 03:22:50;;;;;;;14.82;9.23;;;;;;;9.58;100.00;101257.06;5246581;28;20021;-56
2022/04/13 03:25:21;;;;;;;9.25;8.68;;;;;;;9.61;100.00;101261.97;5247602;28;20047;-54
2022/04/13 03:27:51;;;;;;;8.57;7.88;;;;;;;9.60;100.00;101263.84;5231235;28;20070;-55
2022/04/13 03:30:23;;;;;;;23.08;10.77;;;;;;;9.56;100.00;101265.38;5247721;28;20025;-56
2022/04/13 03:32:53;;;;;;;9.88;9.00;;;;;;;9.37;100.00;101237.78;5230927;28;20024;-55
2022/04/13 03:35:24;;;;;;;13.95;9.30;;;;;;;9.50;100.00;101265.53;5247644;28;20456;-54
2022/04/13 03:37:54;;;;;;;9.55;8.75;;;;;;;9.52;100.00;101274.22;5230773;28;20435;-55
2022/04/13 03:40:26;;;;;;;10.10;9.20;;;;;;;9.48;100.00;101268.47;5247632;28;20021;-55
2022/04/13 03:42:56;;;;;;;9.55;8.65;;;;;;;9.43;100.00;101261.09;5247465;28;20391;-56
2022/04/13 03:45:26;;;;;;;9.82;9.02;;;;;;;9.44;100.00;101262.75;5247275;28;20036;-56
2022/04/13 03:47:57;;;;;;;10.63;9.50;;;;;;;9.38;100.00;101270.94;5230776;28;20028;-56
2022/04/13 03:50:27;;;;;;;9.75;8.80;;;;;;;9.50;100.00;101281.72;5248615;28;20073;-55
2022/04/13 03:52:58;;;;;;;10.27;9.48;;;;;;;9.54;100.00;101274.75;5230660;28;20024;-56
2022/04/13 03:55:28;;;;;;;10.65;8.57;;;;;;;9.61;100.00;101278.16;5247128;28;20024;-54
2022/04/13 03:57:59;;;;;;;11.40;10.15;;;;;;;9.66;100.00;101281.78;5230534;28;20029;-54
2022/04/13 04:00:30;;;;;;;12.05;11.00;;;;;;;9.68;100.00;101276.16;5230428;28;20020;-55
2022/04/13 04:03:00;;;;;;;12.18;10.80;;;;;;;9.75;100.00;101291.13;5230625;28;20499;-56
2022/04/13 04:05:31;;;;;;;15.98;10.60;;;;;;;9.62;100.00;101264.44;5246862;28;20029;-56
2022/04/13 04:08:01;;;;;;;10.98;9.85;;;;;;;9.84;100.00;101291.56;5248315;28;20074;-54
2022/04/13 04:10:32;;;;;;;11.50;9.82;;;;;;;9.90;100.00;101292.47;5247006;28;20435;-54
2022/04/13 04:13:02;;;;;;;11.52;10.63;;;;;;;9.91;100.00;101300.31;5230216;28;20497;-54
2022/04/13 04:15:33;;;;;;;10.25;9.23;;;;;;;9.93;100.00;101303.59;5230099;28;20029;-55
2022/04/13 04:18:03;;;;;;;11.98;9.23;;;;;;;9.97;100.00;101310.16;5230224;28;20032;-56
2022/04/13 04:20:34;;;;;;;15.07;10.57;;;;;;;9.99;100.00;101315.31;5230239;28;20024;-55
2022/04/13 04:23:04;;;;;;;11.35;10.20;;;;;;;10.00;100.00;101323.16;5230527;28;20025;-54
2022/04/13 04:25:36;;;;;;;15.50;10.57;;;;;;;10.02;100.00;101328.31;5246765;28;20028;-55
2022/04/13 04:28:10;;;;;;;10.95;10.15;;;;;;;10.09;100.00;101318.22;5246901;28;20125;-56
2022/04/13 04:30:41;;;;;;;13.13;11.35;;;;;;;10.07;100.00;101312.25;5228992;28;20521;-54
2022/04/13 04:33:16;;;;;;;13.05;11.93;;;;;;;10.22;100.00;101330.59;5229801;28;20027;-57
2022/04/13 04:35:50;;;;;;;14.15;12.90;;;;;;;10.26;100.00;101335.28;5229845;28;20111;-54
2022/04/13 04:38:20;;;;;;;16.52;14.95;;;;;;;10.31;100.00;101326.47;5229986;28;20515;-55
2022/04/13 04:40:51;;;;;;;16.83;15.45;;;;;;;10.35;100.00;101328.44;5248532;28;20108;-56
2022/04/13 04:46:28;;;;;;;18.40;14.55;;;;;;;10.12;100.00;101279.94;5438516;22;20045;-82
2022/04/13 04:52:25;;;;;;;13.55;12.65;;;;;;;10.45;100.00;101333.19;5233763;28;20039;-82
2022/04/13 04:54:55;;;;;;;23.10;15.52;;;;;;;10.45;100.00;101342.09;5228276;28;20085;-80
2022/04/13 05:02:55;;;;;;;15.43;13.90;;;;;;;10.55;100.00;101349.56;5042779;26;20311;-61
2022/04/13 05:05:26;;;;;;;14.02;13.02;;;;;;;10.57;100.00;101346.63;5241517;28;20067;-57
2022/04/13 05:07:56;;;;;;;24.25;16.10;;;;;;;10.63;100.00;101349.19;5223935;28;20056;-59
2022/04/13 05:10:27;;;;;;;19.35;15.55;;;;;;;10.64;100.00;101352.69;5207908;28;20028;-58
2022/04/13 05:12:58;;;;;;;26.67;15.68;;;;;;;10.69;100.00;101356.28;5208186;28;20032;-58
2022/04/13 05:16:09;;;;;;;15.80;14.13;;;;;;;10.76;100.00;101354.25;5225943;28;20020;-58
2022/04/13 05:18:42;;;;;;;14.63;13.23;;;;;;;10.69;100.00;101340.06;5241530;28;20025;-57
2022/04/13 05:21:14;;;;;;;14.80;12.48;;;;;;;10.80;100.00;101363.50;5224284;28;20033;-57
2022/04/13 05:23:44;;;;;;;26.52;17.13;;;;;;;10.80;100.00;101368.09;5218685;28;20083;-59
2022/04/13 05:26:18;;;;;;;18.55;15.70;;;;;;;10.74;100.00;101367.19;5220810;28;20443;-57
2022/04/13 05:28:48;;;;;;;19.00;15.20;;;;;;;10.83;100.00;101381.09;5204455;28;20683;-59
2022/04/13 05:31:19;;;;;;;21.45;14.88;;;;;;;10.74;100.00;101369.88;5204402;28;20057;-56
2022/04/13 05:33:49;;;;;;;15.60;13.52;;;;;;;10.90;100.00;101387.19;5204321;28;20021;-58
2022/04/13 05:36:20;;;;;;;20.92;15.30;;;;;;;10.80;100.00;101355.41;5204097;28;20032;-57
2022/04/13 05:38:51;;;;;;;17.05;15.48;;;;;;;11.02;100.00;101385.19;5203887;28;20029;-58
2022/04/13 05:41:21;;;;;;;17.10;15.48;;;;;;;11.09;100.00;101387.75;5204083;28;20017;-58
2022/04/13 05:43:52;;;;;;;18.15;16.42;;;;;;;11.15;100.00;101392.16;5202631;28;20025;-58
2022/04/13 05:46:22;;;;;;;23.77;16.73;;;;;;;11.20;100.00;101405.78;5210719;22;20387;-56
2022/04/13 05:48:53;;;;;;;15.45;14.25;;;;;;;11.22;100.00;101403.63;5219037;28;20033;-54
2022/04/13 05:51:24;;;;;;;21.77;16.48;;;;;;;11.29;100.00;101409.66;5204645;28;20033;-54
2022/04/13 05:53:54;;;;;;;19.15;14.80;;;;;;;11.22;100.00;101392.81;5200877;28;20037;-54
2022/04/13 05:56:25;;;;;;;24.30;18.23;;;;;;;11.39;100.00;101407.13;5203510;28;20501;-56
2022/04/13 05:58:55;;;;;;;19.50;17.65;;;;;;;11.48;100.00;101405.66;5220056;28;20025;-55
2022/04/13 06:01:25;;;;;;;16.85;15.23;;;;;;;11.56;100.00;101409.78;5230267;22;20501;-63
2022/04/13 06:03:56;;;;;;;22.55;18.15;;;;;;;11.67;100.00;101400.75;5220154;28;20029;-64
2022/04/13 06:06:28;;;;;;;18.17;16.45;;;;;;;11.57;100.00;101370.03;5220528;28;20068;-63
2022/04/13 06:08:59;;;;;;;33.30;16.38;;;;;;;11.93;100.00;101407.34;5205356;28;20478;-63
2022/04/13 06:11:29;;;;;;;17.75;16.00;;;;;;;12.05;100.00;101410.78;5220612;28;20026;-63
2022/04/13 06:13:59;;;;;;;17.90;16.27;;;;;;;12.15;100.00;101419.00;5203596;28;20067;-64
2022/04/13 06:16:30;;;;;;;16.60;15.30;;;;;;;12.27;100.00;101431.59;5203709;28;20395;-64
2022/04/13 06:19:00;;;;;;;18.90;17.13;;;;;;;12.36;100.00;101430.06;5220519;28;20402;-62
2022/04/13 06:21:31;;;;;;;21.80;19.15;;;;;;;12.44;100.00;101440.44;5220422;28;20487;-63
2022/04/13 06:24:02;;;;;;;21.33;17.38;;;;;;;12.55;100.00;101444.91;5203325;28;20087;-63
2022/04/13 06:26:32;;;;;;;17.67;16.02;;;;;;;12.64;100.00;101450.69;5203872;28;20022;-62
2022/04/13 06:29:03;;;;;;;17.42;15.57;;;;;;;12.61;100.00;101427.63;5203866;28;20033;-64
2022/04/13 06:31:34;;;;;;;20.77;18.75;;;;;;;12.77;100.00;101448.38;5203583;28;20031;-63
2022/04/13 06:34:04;;;;;;;23.38;19.00;;;;;;;12.70;100.00;101453.22;5219862;28;20475;-62
2022/04/13 06:36:35;;;;;;;18.30;16.80;;;;;;;12.71;100.00;101465.66;5203656;28;20068;-62
2022/04/13 06:39:05;;;;;;;20.25;18.33;;;;;;;12.73;100.00;101459.97;5220139;28;20032;-63
2022/04/13 06:41:36;;;;;;;20.80;18.83;;;;;;;12.73;100.00;101463.50;5220260;28;20025;-65
2022/04/13 06:44:06;;;;;;;21.60;19.33;;;;;;;12.77;100.00;101456.50;5203224;28;20049;-63
2022/04/13 06:46:37;;;;;;;22.83;19.90;;;;;;;12.93;100.00;101462.09;5220149;28;20113;-63
2022/04/13 06:49:07;;;;;;;25.27;20.45;;;;;;;13.10;100.00;101462.78;5219957;28;20025;-62
2022/04/13 06:51:37;;;;;;;20.58;16.45;;;;;;;13.12;100.00;101466.06;5203468;28;20108;-63
2022/04/13 06:54:08;;;;;;;20.35;18.10;;;;;;;13.39;100.00;101482.31;5206736;28;20061;-64
2022/04/13 06:56:39;;;;;;;20.00;18.10;;;;;;;13.44;100.00;101471.50;5208604;28;20446;-64
2022/04/13 06:59:10;;;;;;;21.05;19.08;;;;;;;13.66;100.00;101476.81;5207350;28;20029;-64
2022/04/13 07:01:40;;;;;;;19.33;16.83;;;;;;;13.74;100.00;101473.63;5222720;28;20024;-67
2022/04/13 07:04:11;;;;;;;18.33;16.60;;;;;;;13.72;100.00;101454.06;5227298;28;20108;-65
2022/04/13 07:06:41;;;;;;;20.83;18.67;;;;;;;14.03;100.00;101477.56;5227774;28;20394;-64
2022/04/13 07:09:11;;;;;;;18.48;16.75;;;;;;;14.18;100.00;101482.25;5239483;28;20036;-64
2022/04/13 07:11:42;;;;;;;17.98;16.13;;;;;;;14.12;100.00;101475.19;5227857;28;20478;-63
2022/04/13 07:14:12;;;;;;;16.67;15.20;;;;;;;14.22;100.00;101488.78;5227191;28;20025;-68
2022/04/13 07:16:43;;;;;;;17.10;15.68;;;;;;;14.35;100.00;101496.47;5227612;28;20029;-63
2022/04/13 07:19:13;;;;;;;18.40;15.32;;;;;;;14.31;100.00;101473.63;5227776;28;20025;-64
2022/04/13 07:21:44;;;;;;;19.45;16.85;;;;;;;14.69;100.00;101513.22;5210853;28;20020;-63
2022/04/13 07:24:14;;;;;;;15.93;14.15;;;;;;;14.82;100.00;101512.69;5210510;28;20079;-64
2022/04/13 07:26:45;;;;;;;17.45;15.85;;;;;;;15.03;100.00;101518.16;5227413;28;20075;-64
2022/04/13 07:29:15;;;;;;;18.10;16.27;;;;;;;15.19;100.00;101528.81;5210721;28;20021;-64
2022/04/13 07:31:46;;;;;;;17.52;15.73;;;;;;;15.38;100.00;101510.03;5227168;28;20036;-62
2022/04/13 07:34:16;;;;;;;15.52;14.13;;;;;;;15.56;100.00;101499.69;5226877;28;20025;-63
2022/04/13 07:36:47;;;;;;;15.00;13.38;;;;;;;15.81;100.00;101521.47;5227207;28;20094;-63
2022/04/13 07:39:18;;;;;;;15.45;13.70;;;;;;;15.78;100.00;101506.50;5226914;28;20025;-63
2022/04/13 07:41:48;;;;;;;16.58;14.60;;;;;;;16.17;100.00;101528.47;5232635;28;20025;-64
2022/04/13 07:44:19;;;;;;;18.67;16.98;;;;;;;16.36;100.00;101530.59;5210087;28;20021;-63
2022/04/13 07:46:49;;;;;;;14.85;13.38;;;;;;;16.43;100.00;101510.13;5210284;28;20040;-62
2022/04/13 07:49:21;;;;;;;16.55;14.82;;;;;;;16.65;100.00;101528.06;5210173;28;20020;-64
2022/04/13 07:51:52;;;;;;;15.65;13.23;;;;;;;16.88;100.00;101532.84;5238438;28;20079;-66
2022/04/13 07:54:22;;;;;;;15.88;14.35;;;;;;;17.08;100.00;101532.69;5226391;28;20433;-64
2022/04/13 07:56:53;;;;;;;13.95;12.70;;;;;;;17.17;100.00;101532.91;5210046;28;20116;-63
2022/04/13 07:59:23;;;;;;;14.48;13.27;;;;;;;17.09;100.00;101542.50;5209951;28;20068;-62
2022/04/13 08:01:54;;;;;;;13.88;12.68;;;;;;;17.15;100.00;101541.38;5226149;28;20478;-63
2022/04/13 08:04:25;;;;;;;16.92;15.30;;;;;;;17.28;100.00;101545.41;5226371;28;20513;-63
2022/04/13 08:06:55;;;;;;;13.80;12.80;;;;;;;17.42;100.00;101545.56;5210054;28;20554;-62
2022/04/13 08:09:26;;;;;;;14.50;13.43;;;;;;;17.52;100.00;101540.84;5226470;28;20028;-62
2022/04/13 08:11:56;;;;;;;16.58;12.27;;;;;;;17.56;100.00;101535.63;5209712;28;20028;-62
2022/04/13 08:14:27;;;;;;;15.88;14.48;;;;;;;17.70;100.00;101538.53;5226253;28;20028;-62
2022/04/13 08:16:57;;;;;;;13.32;12.05;;;;;;;17.85;100.00;101535.66;5226255;28;20032;-62
2022/04/13 08:19:28;;;;;;;13.07;11.88;;;;;;;18.00;100.00;101542.88;5226211;28;20021;-63
2022/04/13 08:21:58;;;;;;;19.00;13.68;;;;;;;18.03;100.00;101553.25;5209575;28;20383;-62
2022/04/13 08:24:29;;;;;;;13.80;12.43;;;;;;;18.07;100.00;101552.38;5226181;28;20028;-63
2022/04/13 08:27:00;;;;;;;14.13;12.82;;;;;;;18.11;100.00;101552.63;5209773;28;20033;-62
2022/04/13 08:29:30;;;;;;;23.40;13.50;;;;;;;18.10;100.00;101559.19;5209701;28;20372;-67
2022/04/13 08:32:00;;;;;;;17.17;14.77;;;;;;;17.94;100.00;101553.03;5209354;28;20056;-62
2022/04/13 08:34:32;;;;;;;15.05;13.57;;;;;;;17.88;100.00;101559.69;5214786;28;20404;-61
2022/04/13 08:37:02;;;;;;;15.27;13.80;;;;;;;17.87;100.00;101568.97;5226007;28;20032;-62
2022/04/13 08:39:33;;;;;;;17.05;12.95;;;;;;;17.67;100.00;101585.53;5209133;28;20108;-61
2022/04/13 08:42:10;;;;;;;12.00;10.27;;;;;;;17.63;100.00;101579.78;5209316;28;20029;-61
2022/04/13 08:45:06;;;;;;;14.95;12.73;;;;;;;17.49;100.00;101587.03;5225545;28;20033;-62
2022/04/13 08:47:42;;;;;;;13.95;12.75;;;;;;;17.36;100.00;101577.53;5227030;28;20041;-62
2022/04/13 08:50:13;;;;;;;14.80;12.15;;;;;;;17.28;100.00;101580.91;5225498;28;20025;-61
2022/04/13 08:52:51;;;;;;;20.10;13.40;;;;;;;17.29;100.00;101606.28;5209103;28;20027;-62
2022/04/13 08:55:23;;;;;;;12.40;11.10;;;;;;;17.10;100.00;101603.38;5225409;28;20028;-61
2022/04/13 08:58:27;;;;;;;17.50;13.48;;;;;;;16.99;100.00;101618.19;5211787;28;20029;-62
2022/04/13 09:01:03;;;;;;;12.80;11.55;;;;;;;16.78;100.00;101620.97;5221130;28;20076;-61
2022/04/13 09:03:46;;;;;;;12.73;11.63;;;;;;;16.61;100.00;101619.66;5221149;28;20498;-63
2022/04/13 09:06:21;;;;;;;13.32;11.98;;;;;;;16.46;100.00;101615.88;5204635;28;20091;-62
2022/04/13 09:09:00;;;;;;;14.25;12.95;;;;;;;16.37;100.00;101633.09;5205345;28;20035;-62
2022/04/13 09:11:32;;;;;;;15.02;12.25;;;;;;;16.29;100.00;101622.75;5204609;28;20025;-62
2022/04/13 09:14:03;;;;;;;20.75;13.93;;;;;;;16.20;100.00;101626.00;5204042;28;20029;-63
2022/04/13 09:16:34;;;;;;;14.60;13.18;;;;;;;16.17;100.00;101633.91;5187921;28;20061;-63
2022/04/13 09:19:05;;;;;;;17.73;14.73;;;;;;;16.11;100.00;101635.84;5220748;28;20021;-65
2022/04/13 09:21:36;;;;;;;16.38;14.77;;;;;;;16.16;100.00;101635.84;5205842;28;20103;-63
2022/04/13 09:24:09;;;;;;;12.93;11.93;;;;;;;16.07;100.00;101632.03;5204258;28;20032;-63
2022/04/13 09:26:40;;;;;;;16.92;15.18;;;;;;;16.11;100.00;101632.31;5204322;28;20029;-64
2022/04/13 09:29:11;;;;;;;14.02;12.98;;;;;;;16.25;100.00;101638.00;5205951;28;20028;-63
2022/04/13 09:31:41;;;;;;;16.13;14.73;;;;;;;16.19;100.00;101634.47;5222041;28;20025;-63
2022/04/13 09:34:12;;;;;;;15.88;14.40;;;;;;;16.20;100.00;101639.63;5222142;28;20056;-63
2022/04/13 09:36:44;;;;;;;15.57;14.02;;;;;;;16.27;100.00;101644.81;5205858;28;20395;-63
2022/04/13 09:39:19;;;;;;;17.40;15.52;;;;;;;16.09;100.00;101616.25;5205728;28;20521;-63
2022/04/13 09:41:50;;;;;;;17.10;15.82;;;;;;;16.17;100.00;101637.47;5204721;28;20483;-63
2022/04/13 09:44:21;;;;;;;26.83;19.00;;;;;;;16.10;100.00;101653.28;5203596;28;20729;-63
2022/04/13 09:46:51;;;;;;;24.88;22.70;;;;;;;15.98;100.00;101650.03;5220804;28;20029;-63
2022/04/13 09:49:22;;;;;;;23.30;21.23;;;;;;;15.86;100.00;101658.47;5204167;28;20115;-64
2022/04/13 09:51:52;;;;;;;21.30;19.02;;;;;;;15.78;100.00;101660.91;5204422;28;20430;-63
2022/04/13 09:54:24;;;;;;;20.15;16.88;;;;;;;15.79;100.00;101655.19;5203811;28;20124;-63
2022/04/13 09:56:55;;;;;;;19.30;16.20;;;;;;;15.81;100.00;101661.19;5204111;28;20072;-63
2022/04/13 09:59:30;;;;;;;17.65;15.70;;;;;;;15.71;100.00;101649.47;5203605;28;20052;-63
2022/04/13 10:02:01;;;;;;;17.58;15.77;;;;;;;15.79;100.00;101646.22;5204597;28;20057;-64
2022/04/13 10:04:31;;;;;;;20.52;18.48;;;;;;;15.74;100.00;101644.28;5203520;28;20056;-64
2022/04/13 10:07:16;;;;;;;17.27;15.88;;;;;;;15.82;100.00;101659.28;5203506;28;20039;-64
2022/04/13 10:09:47;;;;;;;20.60;18.08;;;;;;;15.87;100.00;101670.19;5220241;28;20025;-67
2022/04/13 10:12:17;;;;;;;19.52;14.60;;;;;;;15.89;100.00;101668.00;5203800;28;20030;-64
2022/04/13 10:14:48;;;;;;;20.23;15.23;;;;;;;15.95;100.00;101653.28;5203684;28;20083;-64
2022/04/13 10:17:20;;;;;;;15.50;12.60;;;;;;;16.04;100.00;101664.47;5203954;28;20029;-65
2022/04/13 10:19:58;;;;;;;17.30;15.68;;;;;;;15.97;100.00;101648.38;5203320;28;20033;-64
2022/04/13 10:22:29;;;;;;;18.15;16.33;;;;;;;15.88;100.00;101642.66;5220228;28;20052;-63
2022/04/13 10:25:26;;;;;;;12.95;11.93;;;;;;;15.94;100.00;101667.19;5203392;28;20025;-64
2022/04/13 10:27:59;;;;;;;13.68;12.18;;;;;;;15.88;100.00;101677.25;5205043;28;20037;-64
2022/04/13 10:30:33;;;;;;;13.95;12.52;;;;;;;15.81;100.00;101668.53;5209138;28;20056;-64
2022/04/13 10:33:06;;;;;;;14.48;12.68;;;;;;;15.77;100.00;101672.91;5209428;28;20104;-65
2022/04/13 10:35:40;;;;;;;14.88;13.10;;;;;;;15.72;100.00;101670.97;5209215;28;20494;-64
2022/04/13 10:38:12;;;;;;;17.42;13.50;;;;;;;15.60;100.00;101675.03;5208543;28;20487;-64
2022/04/13 10:40:43;;;;;;;24.67;13.70;;;;;;;15.46;100.00;101670.09;5224823;28;20499;-66
2022/04/13 10:43:13;;;;;;;12.98;11.93;;;;;;;15.42;100.00;101679.88;5223690;28;20045;-63
2022/04/13 10:45:46;;;;;;;15.43;13.88;;;;;;;15.33;100.00;101689.63;5223129;28;20083;-63
2022/04/13 10:48:22;;;;;;;12.90;11.65;;;;;;;15.31;100.00;101691.81;5224077;28;20033;-63
2022/04/13 10:51:06;;;;;;;16.30;14.48;;;;;;;15.33;100.00;101691.53;5207319;28;20095;-63
2022/04/13 10:53:42;;;;;;;14.88;13.55;;;;;;;15.29;100.00;101699.44;5223630;28;20095;-63
2022/04/13 10:56:16;;;;;;;15.82;14.23;;;;;;;15.18;100.00;101679.53;5223954;28;20435;-63
2022/04/13 10:59:05;;;;;;;22.00;14.88;;;;;;;15.24;100.00;101698.59;5223695;28;20388;-63
2022/04/13 11:01:46;;;;;;;16.75;15.30;;;;;;;15.27;100.00;101698.06;5238372;28;20032;-63
2022/04/13 11:04:16;;;;;;;15.50;11.73;;;;;;;15.29;100.00;101706.78;5227211;28;20044;-64
2022/04/13 11:06:48;;;;;;;16.17;14.55;;;;;;;15.23;100.00;101714.13;5228648;28;20054;-62
2022/04/13 11:09:41;;;;;;;14.32;13.18;;;;;;;15.26;100.00;101707.31;5243714;28;20032;-63
2022/04/13 11:12:12;;;;;;;14.77;12.05;;;;;;;15.39;100.00;101715.78;5210169;28;20053;-63
2022/04/13 11:14:49;;;;;;;23.42;16.10;;;;;;;15.49;100.00;101706.84;5210005;28;20028;-63
2022/04/13 11:17:20;;;;;;;12.38;11.18;;;;;;;15.69;100.00;101717.00;5226830;28;20017;-63
2022/04/13 11:19:50;;;;;;;16.50;15.15;;;;;;;15.91;100.00;101712.13;5226508;28;20040;-63
2022/04/13 11:22:21;;;;;;;18.23;12.63;;;;;;;16.04;100.00;101710.78;5210125;28;20071;-61
2022/04/13 11:24:51;;;;;;;24.67;14.80;;;;;;;16.12;100.00;101711.06;5209804;28;20128;-63
2022/04/13 11:27:22;;;;;;;23.63;14.05;;;;;;;15.99;100.00;101717.03;5226302;28;20115;-62
2022/04/13 11:29:57;;;;;;;16.33;14.18;;;;;;;15.94;100.00;101718.94;5226516;28;20036;-63
2022/04/13 11:32:33;;;;;;;15.45;13.85;;;;;;;15.96;100.00;101723.03;5226118;28;20033;-64
2022/04/13 11:35:06;;;;;;;15.15;13.57;;;;;;;15.96;100.00;101716.75;5209716;28;20057;-64
2022/04/13 11:37:36;;;;;;;13.77;12.50;;;;;;;16.01;100.00;101712.13;5226913;28;20556;-64
2022/04/13 11:40:11;;;;;;;32.67;14.60;;;;;;;16.28;100.00;101709.13;5226169;28;20033;-63
2022/04/13 11:42:43;;;;;;;14.27;13.15;;;;;;;16.37;100.00;101720.31;5209464;28;20138;-64
2022/04/13 11:45:16;;;;;;;20.77;18.00;;;;;;;16.23;100.00;101717.31;5226088;28;20039;-64
2022/04/13 11:47:52;;;;;;;16.90;15.32;;;;;;;16.18;100.00;101723.56;5205445;28;20075;-64
2022/04/13 11:50:25;;;;;;;18.58;16.88;;;;;;;15.80;100.00;101677.81;5223317;28;20546;-65